Terminal Aerodrome Forecast
Issued by NWS

Home | Current Version | Previous Version | Text Only | Print | Product List | Glossary On
Versions: 1 2 3 4 5 6 7 8 9 10 11 12 13
000
FTUS46 KSGX 221723
TAFONT
TAF
KONT 221723Z 2218/2324 25007KT P6SM VCSH SCT020 BKN040 OVC070
     FM222000 25011G17KT P6SM VCSH FEW025 OVC040
     FM230200 25010KT P6SM BKN020 OVC035
     FM230600 24005KT P6SM BKN020 OVC035
     FM231800 VRB05KT P6SM SCT025 BKN035
     FM232100 25011KT P6SM FEW025 SCT040=

USA.gov is the U.S. government's official web portal to all federal, state and local government web resources and services.